NOO2005 SKRG-SKBQ
Flight info
| Callsign | NOO2005 |
|---|---|
| Flight time | 1h 11m |
| Altitude | 24000 |
| Route | BIVIG1B BIVIG UW3 VOVLU VOVLU4A |
| Aircraft | A320/M-SDE3FGHIRWY/LB1 |
Departure
| Time | 2026-04-28 20:58 |
|---|---|
| Airport | Jose Maria Córdova International Airport (SKRG) |
Arrival
| Time | 2026-04-28 22:09 |
|---|---|
| Airport | Ernesto Cortissoz International Airport (SKBQ) |
| Time | Latitude | Longitude | Altitude | Speed | Heading |
|---|---|---|---|---|---|
| 2026-04-28 20:27 | 6.17035 | -75.42725 | 7033 ft | 0 kts | 301° |
| 2026-04-28 20:42 | 6.17032 | -75.42718 | 7033 ft | 2 kts | 301° |
| 2026-04-28 20:42 | 6.17022 | -75.42707 | 7033 ft | 2 kts | 325° |
| 2026-04-28 20:42 | 6.17008 | -75.42699 | 7033 ft | 2 kts | 342° |
| 2026-04-28 20:43 | 6.16994 | -75.42697 | 7033 ft | 2 kts | 0° |
| 2026-04-28 20:43 | 6.16979 | -75.42699 | 7033 ft | 2 kts | 19° |
| 2026-04-28 20:43 | 6.16965 | -75.42705 | 7033 ft | 2 kts | 37° |
| 2026-04-28 20:43 | 6.16956 | -75.42715 | 7033 ft | 0 kts | 53° |
| 2026-04-28 20:44 | 6.16952 | -75.42721 | 7033 ft | 0 kts | 56° |
| 2026-04-28 20:46 | 6.16956 | -75.42715 | 7033 ft | 2 kts | 52° |
| 2026-04-28 20:46 | 6.16971 | -75.42697 | 7033 ft | 4 kts | 45° |
| 2026-04-28 20:47 | 6.16996 | -75.42676 | 7033 ft | 5 kts | 39° |
| 2026-04-28 20:47 | 6.17031 | -75.42646 | 7033 ft | 7 kts | 48° |
| 2026-04-28 20:47 | 6.17032 | -75.42593 | 7032 ft | 9 kts | 135° |
| 2026-04-28 20:47 | 6.16970 | -75.42551 | 7033 ft | 11 kts | 150° |
| 2026-04-28 20:48 | 6.16902 | -75.42512 | 7033 ft | 11 kts | 150° |
| 2026-04-28 20:48 | 6.16846 | -75.42486 | 7033 ft | 8 kts | 168° |
| 2026-04-28 20:48 | 6.16786 | -75.42483 | 7033 ft | 8 kts | 179° |
| 2026-04-28 20:48 | 6.16724 | -75.42483 | 7033 ft | 9 kts | 180° |
| 2026-04-28 20:49 | 6.16660 | -75.42482 | 7033 ft | 9 kts | 179° |
| 2026-04-28 20:49 | 6.16593 | -75.42481 | 7033 ft | 9 kts | 180° |
| 2026-04-28 20:49 | 6.16525 | -75.42481 | 7033 ft | 9 kts | 179° |
| 2026-04-28 20:49 | 6.16456 | -75.42480 | 7033 ft | 10 kts | 179° |
| 2026-04-28 20:50 | 6.16384 | -75.42479 | 7033 ft | 10 kts | 179° |
| 2026-04-28 20:50 | 6.16311 | -75.42479 | 7033 ft | 10 kts | 180° |
| 2026-04-28 20:50 | 6.16237 | -75.42478 | 7033 ft | 10 kts | 180° |
| 2026-04-28 20:50 | 6.16162 | -75.42478 | 7033 ft | 10 kts | 180° |
| 2026-04-28 20:51 | 6.16087 | -75.42477 | 7033 ft | 10 kts | 180° |
| 2026-04-28 20:51 | 6.16010 | -75.42477 | 7033 ft | 11 kts | 180° |
| 2026-04-28 20:51 | 6.15934 | -75.42477 | 7033 ft | 11 kts | 179° |
| 2026-04-28 20:51 | 6.15856 | -75.42476 | 7033 ft | 11 kts | 179° |
| 2026-04-28 20:52 | 6.15778 | -75.42475 | 7033 ft | 11 kts | 180° |
| 2026-04-28 20:52 | 6.15699 | -75.42475 | 7033 ft | 11 kts | 180° |
| 2026-04-28 20:52 | 6.15620 | -75.42474 | 7033 ft | 11 kts | 180° |
| 2026-04-28 20:52 | 6.15542 | -75.42475 | 7033 ft | 11 kts | 180° |
| 2026-04-28 20:53 | 6.15383 | -75.42473 | 7033 ft | 11 kts | 179° |
| 2026-04-28 20:53 | 6.15302 | -75.42472 | 7033 ft | 11 kts | 179° |
| 2026-04-28 20:53 | 6.15222 | -75.42472 | 7033 ft | 11 kts | 179° |
| 2026-04-28 20:54 | 6.15143 | -75.42471 | 7033 ft | 11 kts | 179° |
| 2026-04-28 20:54 | 6.15062 | -75.42471 | 7033 ft | 11 kts | 180° |
| 2026-04-28 20:54 | 6.14987 | -75.42471 | 7033 ft | 8 kts | 179° |
| 2026-04-28 20:54 | 6.14940 | -75.42458 | 7033 ft | 5 kts | 134° |
| 2026-04-28 20:55 | 6.14930 | -75.42437 | 7033 ft | 3 kts | 105° |
| 2026-04-28 20:55 | 6.14928 | -75.42426 | 7033 ft | 0 kts | 92° |
| 2026-04-28 20:55 | 6.14928 | -75.42424 | 7033 ft | 0 kts | 92° |
| 2026-04-28 20:55 | 6.14928 | -75.42419 | 7033 ft | 0 kts | 92° |
| 2026-04-28 20:56 | 6.14927 | -75.42403 | 7033 ft | 4 kts | 92° |
| 2026-04-28 20:56 | 6.14933 | -75.42345 | 7033 ft | 10 kts | 62° |
| 2026-04-28 20:56 | 6.14987 | -75.42302 | 7033 ft | 9 kts | 2° |
| 2026-04-28 20:56 | 6.14998 | -75.42303 | 7033 ft | 0 kts | 0° |
| 2026-04-28 20:57 | 6.15072 | -75.42303 | 7033 ft | 39 kts | 360° |
| 2026-04-28 20:57 | 6.15575 | -75.42306 | 7033 ft | 104 kts | 0° |
| 2026-04-28 20:57 | 6.16505 | -75.42313 | 7033 ft | 159 kts | 360° |
| 2026-04-28 20:57 | 6.17706 | -75.42319 | 7341 ft | 178 kts | 360° |
| 2026-04-28 20:58 | 6.18904 | -75.42325 | 8007 ft | 174 kts | 359° |
| 2026-04-28 20:58 | 6.20099 | -75.42329 | 8535 ft | 174 kts | 0° |
| 2026-04-28 20:58 | 6.21318 | -75.42165 | 8893 ft | 183 kts | 26° |
| 2026-04-28 20:58 | 6.22238 | -75.41296 | 9327 ft | 186 kts | 66° |
| 2026-04-28 20:59 | 6.22420 | -75.40027 | 9809 ft | 187 kts | 97° |
| 2026-04-28 20:59 | 6.22347 | -75.38710 | 10288 ft | 190 kts | 79° |
| 2026-04-28 20:59 | 6.22802 | -75.37394 | 10593 ft | 204 kts | 65° |
| 2026-04-28 20:59 | 6.23475 | -75.36063 | 10898 ft | 219 kts | 63° |
| 2026-04-28 21:00 | 6.24239 | -75.34598 | 11211 ft | 235 kts | 63° |
| 2026-04-28 21:00 | 6.25045 | -75.33013 | 11409 ft | 258 kts | 64° |
| 2026-04-28 21:00 | 6.25890 | -75.31313 | 11771 ft | 275 kts | 64° |
| 2026-04-28 21:00 | 6.26779 | -75.29503 | 12106 ft | 293 kts | 64° |
| 2026-04-28 21:01 | 6.27708 | -75.27605 | 12423 ft | 310 kts | 63° |
| 2026-04-28 21:01 | 6.29021 | -75.25781 | 12709 ft | 329 kts | 42° |
| 2026-04-28 21:01 | 6.31015 | -75.24569 | 12992 ft | 346 kts | 19° |
| 2026-04-28 21:01 | 6.33441 | -75.24213 | 13282 ft | 362 kts | 1° |
| 2026-04-28 21:02 | 6.36018 | -75.24232 | 13559 ft | 377 kts | 359° |
| 2026-04-28 21:02 | 6.38667 | -75.24283 | 13846 ft | 390 kts | 359° |
| 2026-04-28 21:02 | 6.41418 | -75.24316 | 14368 ft | 396 kts | 360° |
| 2026-04-28 21:02 | 6.44143 | -75.24329 | 14982 ft | 398 kts | 0° |
| 2026-04-28 21:03 | 6.46929 | -75.24239 | 15569 ft | 401 kts | 4° |
| 2026-04-28 21:03 | 6.49701 | -75.24019 | 16130 ft | 405 kts | 5° |
| 2026-04-28 21:03 | 6.52515 | -75.23771 | 16695 ft | 408 kts | 6° |
| 2026-04-28 21:03 | 6.55316 | -75.23521 | 17250 ft | 411 kts | 5° |
| 2026-04-28 21:04 | 6.58168 | -75.23269 | 17802 ft | 415 kts | 5° |
| 2026-04-28 21:04 | 6.61064 | -75.23016 | 18340 ft | 418 kts | 5° |
| 2026-04-28 21:04 | 6.63937 | -75.22766 | 18847 ft | 422 kts | 5° |
| 2026-04-28 21:04 | 6.66874 | -75.22512 | 19332 ft | 425 kts | 5° |
| 2026-04-28 21:05 | 6.69812 | -75.22258 | 19807 ft | 429 kts | 5° |
| 2026-04-28 21:05 | 6.72806 | -75.21999 | 20264 ft | 433 kts | 5° |
| 2026-04-28 21:05 | 6.75807 | -75.21740 | 20725 ft | 436 kts | 6° |
| 2026-04-28 21:05 | 6.78820 | -75.21481 | 21176 ft | 440 kts | 6° |
| 2026-04-28 21:06 | 6.81898 | -75.21215 | 21620 ft | 443 kts | 6° |
| 2026-04-28 21:06 | 6.84982 | -75.20948 | 21882 ft | 451 kts | 6° |
| 2026-04-28 21:06 | 6.88110 | -75.20679 | 22156 ft | 458 kts | 6° |
| 2026-04-28 21:06 | 6.91293 | -75.20404 | 22567 ft | 461 kts | 6° |
| 2026-04-28 21:07 | 6.94473 | -75.20130 | 22995 ft | 464 kts | 6° |
| 2026-04-28 21:07 | 6.97669 | -75.19854 | 23398 ft | 467 kts | 6° |
| 2026-04-28 21:07 | 7.00928 | -75.19566 | 23801 ft | 469 kts | 6° |
| 2026-04-28 21:07 | 7.04144 | -75.19165 | 24073 ft | 472 kts | 9° |
| 2026-04-28 21:08 | 7.07380 | -75.18687 | 24088 ft | 472 kts | 9° |
| 2026-04-28 21:08 | 7.10606 | -75.18194 | 24085 ft | 472 kts | 9° |
| 2026-04-28 21:08 | 7.13846 | -75.17697 | 24078 ft | 472 kts | 9° |
| 2026-04-28 21:08 | 7.17108 | -75.17198 | 24067 ft | 472 kts | 9° |
| 2026-04-28 21:09 | 7.20337 | -75.16706 | 24054 ft | 473 kts | 9° |
| 2026-04-28 21:09 | 7.23589 | -75.16213 | 24041 ft | 473 kts | 9° |
| 2026-04-28 21:09 | 7.26850 | -75.15718 | 24030 ft | 474 kts | 9° |
| 2026-04-28 21:09 | 7.30084 | -75.15228 | 24022 ft | 474 kts | 9° |
| 2026-04-28 21:10 | 7.33330 | -75.14735 | 24017 ft | 474 kts | 9° |
| 2026-04-28 21:10 | 7.36574 | -75.14244 | 24014 ft | 474 kts | 9° |
| 2026-04-28 21:10 | 7.39823 | -75.13752 | 24012 ft | 474 kts | 9° |
| 2026-04-28 21:10 | 7.43051 | -75.13263 | 24011 ft | 474 kts | 9° |
| 2026-04-28 21:11 | 7.46339 | -75.12765 | 24010 ft | 474 kts | 9° |
| 2026-04-28 21:11 | 7.49556 | -75.12277 | 24010 ft | 474 kts | 9° |
| 2026-04-28 21:11 | 7.52799 | -75.11786 | 24010 ft | 474 kts | 9° |
| 2026-04-28 21:11 | 7.56073 | -75.11290 | 24010 ft | 474 kts | 9° |
| 2026-04-28 21:12 | 7.59308 | -75.10800 | 24009 ft | 474 kts | 9° |
| 2026-04-28 21:12 | 7.62581 | -75.10305 | 24007 ft | 474 kts | 9° |
| 2026-04-28 21:12 | 7.65796 | -75.09818 | 24005 ft | 474 kts | 9° |
| 2026-04-28 21:12 | 7.69060 | -75.09323 | 24002 ft | 474 kts | 9° |
| 2026-04-28 21:13 | 7.72323 | -75.08827 | 23997 ft | 474 kts | 9° |
| 2026-04-28 21:13 | 7.75575 | -75.08328 | 23985 ft | 475 kts | 9° |
| 2026-04-28 21:13 | 7.78832 | -75.07823 | 23967 ft | 475 kts | 9° |
| 2026-04-28 21:13 | 7.82076 | -75.07322 | 23945 ft | 475 kts | 9° |
| 2026-04-28 21:14 | 7.85323 | -75.06821 | 23921 ft | 476 kts | 9° |
| 2026-04-28 21:14 | 7.88602 | -75.06315 | 23899 ft | 476 kts | 9° |
| 2026-04-28 21:14 | 7.91853 | -75.05814 | 23884 ft | 474 kts | 9° |
| 2026-04-28 21:14 | 7.95092 | -75.05315 | 23872 ft | 472 kts | 9° |
| 2026-04-28 21:15 | 7.98344 | -75.04813 | 23864 ft | 471 kts | 9° |
| 2026-04-28 21:15 | 8.01585 | -75.04314 | 23859 ft | 471 kts | 9° |
| 2026-04-28 21:15 | 8.04805 | -75.03816 | 23857 ft | 472 kts | 9° |
| 2026-04-28 21:15 | 8.08013 | -75.03322 | 23856 ft | 472 kts | 9° |
| 2026-04-28 21:16 | 8.11268 | -75.02821 | 23855 ft | 472 kts | 9° |
| 2026-04-28 21:16 | 8.14495 | -75.02324 | 23855 ft | 472 kts | 9° |
| 2026-04-28 21:16 | 8.17760 | -75.01820 | 23856 ft | 472 kts | 9° |
| 2026-04-28 21:16 | 8.20979 | -75.01324 | 23856 ft | 472 kts | 9° |
| 2026-04-28 21:17 | 8.24197 | -75.00828 | 23856 ft | 472 kts | 9° |
| 2026-04-28 21:17 | 8.27461 | -75.00324 | 23856 ft | 472 kts | 9° |
| 2026-04-28 21:17 | 8.30692 | -74.99826 | 23857 ft | 472 kts | 9° |
| 2026-04-28 21:17 | 8.33926 | -74.99327 | 23858 ft | 472 kts | 9° |
| 2026-04-28 21:18 | 8.37152 | -74.98830 | 23857 ft | 472 kts | 9° |
| 2026-04-28 21:18 | 8.40405 | -74.98328 | 23854 ft | 472 kts | 9° |
| 2026-04-28 21:18 | 8.43624 | -74.97830 | 23850 ft | 472 kts | 9° |
| 2026-04-28 21:18 | 8.46879 | -74.97327 | 23844 ft | 472 kts | 9° |
| 2026-04-28 21:19 | 8.50113 | -74.96828 | 23838 ft | 472 kts | 9° |
| 2026-04-28 21:19 | 8.53350 | -74.96329 | 23832 ft | 472 kts | 9° |
| 2026-04-28 21:19 | 8.56589 | -74.95828 | 23827 ft | 472 kts | 9° |
| 2026-04-28 21:19 | 8.59826 | -74.95328 | 23824 ft | 472 kts | 9° |
| 2026-04-28 21:20 | 8.63048 | -74.94830 | 23822 ft | 472 kts | 9° |
| 2026-04-28 21:20 | 8.66287 | -74.94329 | 23820 ft | 472 kts | 9° |
| 2026-04-28 21:20 | 8.69519 | -74.93829 | 23819 ft | 472 kts | 9° |
| 2026-04-28 21:20 | 8.72738 | -74.93332 | 23819 ft | 472 kts | 9° |
| 2026-04-28 21:21 | 8.75954 | -74.92835 | 23819 ft | 472 kts | 9° |
| 2026-04-28 21:21 | 8.79194 | -74.92334 | 23819 ft | 472 kts | 9° |
| 2026-04-28 21:21 | 8.82429 | -74.91842 | 23818 ft | 472 kts | 7° |
| 2026-04-28 21:21 | 8.85696 | -74.91727 | 23817 ft | 472 kts | 358° |
| 2026-04-28 21:22 | 8.88946 | -74.91955 | 23819 ft | 472 kts | 355° |
| 2026-04-28 21:22 | 8.92232 | -74.92265 | 23819 ft | 472 kts | 354° |
| 2026-04-28 21:22 | 8.95505 | -74.92593 | 23819 ft | 472 kts | 354° |
| 2026-04-28 21:22 | 8.98752 | -74.92920 | 23819 ft | 473 kts | 354° |
| 2026-04-28 21:23 | 9.02002 | -74.93249 | 23819 ft | 473 kts | 354° |
| 2026-04-28 21:23 | 9.05253 | -74.93576 | 23818 ft | 473 kts | 354° |
| 2026-04-28 21:23 | 9.08550 | -74.93906 | 23817 ft | 473 kts | 354° |
| 2026-04-28 21:23 | 9.11801 | -74.94232 | 23816 ft | 473 kts | 354° |
| 2026-04-28 21:24 | 9.15057 | -74.94558 | 23815 ft | 473 kts | 354° |
| 2026-04-28 21:24 | 9.18330 | -74.94886 | 23819 ft | 473 kts | 354° |
| 2026-04-28 21:24 | 9.21583 | -74.95187 | 23815 ft | 473 kts | 357° |
| 2026-04-28 21:24 | 9.24849 | -74.95019 | 23812 ft | 473 kts | 9° |
| 2026-04-28 21:25 | 9.28054 | -74.94260 | 23821 ft | 472 kts | 16° |
| 2026-04-28 21:25 | 9.31182 | -74.93305 | 23818 ft | 472 kts | 18° |
| 2026-04-28 21:25 | 9.34326 | -74.92298 | 23818 ft | 472 kts | 18° |
| 2026-04-28 21:25 | 9.37420 | -74.91299 | 23818 ft | 472 kts | 18° |
| 2026-04-28 21:26 | 9.40572 | -74.90275 | 23817 ft | 472 kts | 19° |
| 2026-04-28 21:26 | 9.43663 | -74.89204 | 23819 ft | 472 kts | 20° |
| 2026-04-28 21:26 | 9.46725 | -74.88103 | 23818 ft | 473 kts | 20° |
| 2026-04-28 21:26 | 9.49811 | -74.86987 | 23815 ft | 473 kts | 20° |
| 2026-04-28 21:27 | 9.52911 | -74.85865 | 23816 ft | 473 kts | 20° |
| 2026-04-28 21:27 | 9.56007 | -74.84744 | 23816 ft | 473 kts | 20° |
| 2026-04-28 21:27 | 9.59117 | -74.83638 | 23816 ft | 473 kts | 17° |
| 2026-04-28 21:27 | 9.62304 | -74.82982 | 23808 ft | 474 kts | 5° |
| 2026-04-28 21:28 | 9.65613 | -74.82929 | 23820 ft | 475 kts | 359° |
| 2026-04-28 21:28 | 9.68914 | -74.83025 | 23820 ft | 475 kts | 358° |
| 2026-04-28 21:28 | 9.72180 | -74.83147 | 23819 ft | 475 kts | 358° |
| 2026-04-28 21:28 | 9.75457 | -74.83270 | 23819 ft | 475 kts | 358° |
| 2026-04-28 21:29 | 9.78753 | -74.83385 | 23819 ft | 475 kts | 358° |
| 2026-04-28 21:29 | 9.82031 | -74.83494 | 23574 ft | 474 kts | 358° |
| 2026-04-28 21:29 | 9.85295 | -74.83597 | 23154 ft | 469 kts | 358° |
| 2026-04-28 21:29 | 9.88541 | -74.83696 | 22676 ft | 465 kts | 358° |
| 2026-04-28 21:30 | 9.91736 | -74.83793 | 22147 ft | 461 kts | 358° |
| 2026-04-28 21:30 | 9.94942 | -74.83888 | 21591 ft | 457 kts | 358° |
| 2026-04-28 21:30 | 9.98083 | -74.83982 | 21034 ft | 452 kts | 358° |
| 2026-04-28 21:30 | 10.01193 | -74.84074 | 20477 ft | 447 kts | 358° |
| 2026-04-28 21:31 | 10.04292 | -74.84166 | 19917 ft | 443 kts | 358° |
| 2026-04-28 21:31 | 10.07329 | -74.84257 | 19361 ft | 438 kts | 358° |
| 2026-04-28 21:31 | 10.10334 | -74.84347 | 18799 ft | 434 kts | 358° |
| 2026-04-28 21:31 | 10.13324 | -74.84437 | 18236 ft | 429 kts | 358° |
| 2026-04-28 21:32 | 10.16299 | -74.84526 | 17676 ft | 424 kts | 358° |
| 2026-04-28 21:32 | 10.19203 | -74.84612 | 17113 ft | 420 kts | 358° |
| 2026-04-28 21:32 | 10.22103 | -74.84699 | 16542 ft | 416 kts | 358° |
| 2026-04-28 21:32 | 10.24972 | -74.84785 | 15960 ft | 412 kts | 359° |
| 2026-04-28 21:33 | 10.27820 | -74.84870 | 15374 ft | 409 kts | 359° |
| 2026-04-28 21:33 | 10.30644 | -74.84955 | 14786 ft | 406 kts | 359° |
| 2026-04-28 21:33 | 10.33444 | -74.85038 | 14206 ft | 402 kts | 359° |
| 2026-04-28 21:33 | 10.36218 | -74.85120 | 13635 ft | 399 kts | 359° |
| 2026-04-28 21:34 | 10.38951 | -74.85202 | 13070 ft | 396 kts | 359° |
| 2026-04-28 21:34 | 10.41671 | -74.85283 | 12502 ft | 393 kts | 359° |
| 2026-04-28 21:34 | 10.44375 | -74.85362 | 11933 ft | 390 kts | 359° |
| 2026-04-28 21:34 | 10.47081 | -74.85442 | 11485 ft | 382 kts | 359° |
| 2026-04-28 21:35 | 10.49682 | -74.85519 | 11177 ft | 371 kts | 359° |
| 2026-04-28 21:35 | 10.52222 | -74.85595 | 10988 ft | 357 kts | 359° |
| 2026-04-28 21:35 | 10.54645 | -74.85668 | 10791 ft | 344 kts | 359° |
| 2026-04-28 21:35 | 10.56976 | -74.85738 | 10605 ft | 332 kts | 359° |
| 2026-04-28 21:36 | 10.59208 | -74.86032 | 10427 ft | 313 kts | 346° |
| 2026-04-28 21:36 | 10.61177 | -74.86774 | 10263 ft | 295 kts | 334° |
| 2026-04-28 21:36 | 10.62959 | -74.87749 | 10131 ft | 290 kts | 331° |
| 2026-04-28 21:36 | 10.64696 | -74.88762 | 10013 ft | 284 kts | 331° |
| 2026-04-28 21:37 | 10.66400 | -74.89753 | 9704 ft | 284 kts | 332° |
| 2026-04-28 21:37 | 10.68119 | -74.90733 | 9361 ft | 283 kts | 334° |
| 2026-04-28 21:37 | 10.69963 | -74.91299 | 9001 ft | 279 kts | 358° |
| 2026-04-28 21:37 | 10.71851 | -74.91075 | 8685 ft | 274 kts | 16° |
| 2026-04-28 21:38 | 10.73686 | -74.90530 | 8363 ft | 272 kts | 20° |
| 2026-04-28 21:38 | 10.75314 | -74.89660 | 8148 ft | 263 kts | 39° |
| 2026-04-28 21:38 | 10.76690 | -74.88502 | 8097 ft | 249 kts | 41° |
| 2026-04-28 21:38 | 10.77960 | -74.87386 | 8029 ft | 237 kts | 41° |
| 2026-04-28 21:39 | 10.79204 | -74.86304 | 7944 ft | 238 kts | 41° |
| 2026-04-28 21:39 | 10.80372 | -74.85101 | 7707 ft | 237 kts | 62° |
| 2026-04-28 21:39 | 10.80765 | -74.83522 | 7440 ft | 233 kts | 94° |
| 2026-04-28 21:39 | 10.80322 | -74.81962 | 7175 ft | 235 kts | 122° |
| 2026-04-28 21:40 | 10.79172 | -74.80794 | 6894 ft | 236 kts | 150° |
| 2026-04-28 21:40 | 10.77603 | -74.80350 | 6609 ft | 239 kts | 180° |
| 2026-04-28 21:40 | 10.75999 | -74.80759 | 6274 ft | 241 kts | 210° |
| 2026-04-28 21:40 | 10.74823 | -74.81927 | 6038 ft | 241 kts | 239° |
| 2026-04-28 21:41 | 10.74354 | -74.83547 | 5442 ft | 247 kts | 272° |
| 2026-04-28 21:41 | 10.74800 | -74.85228 | 4811 ft | 248 kts | 304° |
| 2026-04-28 21:41 | 10.75999 | -74.86404 | 4196 ft | 244 kts | 334° |
| 2026-04-28 21:41 | 10.77632 | -74.86807 | 3468 ft | 244 kts | 5° |
| 2026-04-28 21:42 | 10.79207 | -74.86312 | 2870 ft | 239 kts | 34° |
| 2026-04-28 21:42 | 10.80515 | -74.85322 | 2319 ft | 236 kts | 39° |
| 2026-04-28 21:42 | 10.81749 | -74.84286 | 1924 ft | 226 kts | 40° |
| 2026-04-28 21:42 | 10.82890 | -74.83295 | 1513 ft | 209 kts | 40° |
| 2026-04-28 21:43 | 10.83972 | -74.82362 | 1120 ft | 197 kts | 39° |
| 2026-04-28 21:43 | 10.84982 | -74.81499 | 945 ft | 180 kts | 40° |
| 2026-04-28 21:43 | 10.85883 | -74.80727 | 696 ft | 162 kts | 39° |
| 2026-04-28 21:43 | 10.86712 | -74.80016 | 445 ft | 148 kts | 40° |
| 2026-04-28 21:44 | 10.87471 | -74.79369 | 382 ft | 147 kts | 39° |
| 2026-04-28 21:44 | 10.88279 | -74.78689 | 964 ft | 155 kts | 38° |
| 2026-04-28 21:44 | 10.89099 | -74.78005 | 1801 ft | 154 kts | 39° |
| 2026-04-28 21:44 | 10.89897 | -74.77350 | 2539 ft | 147 kts | 39° |
| 2026-04-28 21:45 | 10.90699 | -74.76651 | 2928 ft | 163 kts | 41° |
| 2026-04-28 21:45 | 10.91623 | -74.75824 | 2996 ft | 185 kts | 41° |
| 2026-04-28 21:45 | 10.92613 | -74.74950 | 2976 ft | 190 kts | 41° |
| 2026-04-28 21:45 | 10.93608 | -74.74084 | 2969 ft | 190 kts | 41° |
| 2026-04-28 21:46 | 10.94622 | -74.73203 | 2982 ft | 189 kts | 40° |
| 2026-04-28 21:46 | 10.95632 | -74.72334 | 2984 ft | 190 kts | 41° |
| 2026-04-28 21:46 | 10.96731 | -74.71600 | 2974 ft | 193 kts | 22° |
| 2026-04-28 21:46 | 10.98046 | -74.71451 | 2979 ft | 195 kts | 354° |
| 2026-04-28 21:47 | 10.99305 | -74.71960 | 2983 ft | 197 kts | 326° |
| 2026-04-28 21:47 | 11.00238 | -74.72984 | 2990 ft | 200 kts | 308° |
| 2026-04-28 21:47 | 11.01043 | -74.74134 | 2990 ft | 201 kts | 306° |
| 2026-04-28 21:47 | 11.01837 | -74.75307 | 2989 ft | 201 kts | 306° |
| 2026-04-28 21:48 | 11.02615 | -74.76491 | 2987 ft | 203 kts | 302° |
| 2026-04-28 21:48 | 11.03069 | -74.77931 | 2935 ft | 227 kts | 279° |
| 2026-04-28 21:48 | 11.03212 | -74.79552 | 2942 ft | 233 kts | 274° |
| 2026-04-28 21:48 | 11.03305 | -74.81210 | 2967 ft | 233 kts | 275° |
| 2026-04-28 21:49 | 11.03427 | -74.82855 | 2975 ft | 233 kts | 276° |
| 2026-04-28 21:49 | 11.03581 | -74.84508 | 2982 ft | 234 kts | 276° |
| 2026-04-28 21:49 | 11.03750 | -74.86146 | 2983 ft | 234 kts | 279° |
| 2026-04-28 21:49 | 11.04305 | -74.87659 | 2972 ft | 229 kts | 310° |
| 2026-04-28 21:50 | 11.05388 | -74.88834 | 2985 ft | 227 kts | 319° |
| 2026-04-28 21:50 | 11.06542 | -74.89916 | 2985 ft | 226 kts | 320° |
| 2026-04-28 21:50 | 11.07703 | -74.90989 | 2982 ft | 226 kts | 327° |
| 2026-04-28 21:50 | 11.09133 | -74.91569 | 2977 ft | 222 kts | 358° |
| 2026-04-28 21:51 | 11.10657 | -74.91551 | 2981 ft | 219 kts | 14° |
| 2026-04-28 21:51 | 11.11975 | -74.90807 | 2976 ft | 216 kts | 49° |
| 2026-04-28 21:51 | 11.12683 | -74.89455 | 2986 ft | 217 kts | 78° |
| 2026-04-28 21:51 | 11.12595 | -74.87890 | 2983 ft | 219 kts | 109° |
| 2026-04-28 21:52 | 11.11721 | -74.86624 | 2987 ft | 223 kts | 141° |
| 2026-04-28 21:52 | 11.10282 | -74.86013 | 2983 ft | 227 kts | 172° |
| 2026-04-28 21:52 | 11.08705 | -74.85956 | 2990 ft | 229 kts | 178° |
| 2026-04-28 21:52 | 11.07101 | -74.85974 | 2988 ft | 229 kts | 178° |
| 2026-04-28 21:53 | 11.05509 | -74.85985 | 2983 ft | 229 kts | 178° |
| 2026-04-28 21:53 | 11.03920 | -74.85980 | 2984 ft | 231 kts | 178° |
| 2026-04-28 21:53 | 11.02335 | -74.86198 | 2966 ft | 233 kts | 205° |
| 2026-04-28 21:53 | 11.01166 | -74.87318 | 2982 ft | 234 kts | 244° |
| 2026-04-28 21:54 | 11.00852 | -74.88897 | 2985 ft | 232 kts | 278° |
| 2026-04-28 21:54 | 11.01427 | -74.90414 | 2985 ft | 228 kts | 311° |
| 2026-04-28 21:54 | 11.02670 | -74.91359 | 2988 ft | 223 kts | 344° |
| 2026-04-28 21:54 | 11.04176 | -74.91565 | 2996 ft | 221 kts | 1° |
| 2026-04-28 21:55 | 11.05712 | -74.91544 | 2990 ft | 219 kts | 2° |
| 2026-04-28 21:55 | 11.07229 | -74.91522 | 2985 ft | 221 kts | 2° |
| 2026-04-28 21:55 | 11.08774 | -74.91515 | 2984 ft | 223 kts | 2° |
| 2026-04-28 21:55 | 11.10333 | -74.91493 | 2983 ft | 221 kts | 9° |
| 2026-04-28 21:56 | 11.11736 | -74.90910 | 2974 ft | 217 kts | 43° |
| 2026-04-28 21:56 | 11.12586 | -74.89636 | 2984 ft | 216 kts | 73° |
| 2026-04-28 21:56 | 11.12625 | -74.88073 | 2986 ft | 218 kts | 105° |
| 2026-04-28 21:56 | 11.11853 | -74.86758 | 2986 ft | 222 kts | 137° |
| 2026-04-28 21:57 | 11.10478 | -74.86050 | 2982 ft | 225 kts | 169° |
| 2026-04-28 21:57 | 11.08909 | -74.85968 | 2993 ft | 227 kts | 178° |
| 2026-04-28 21:57 | 11.07347 | -74.85981 | 2987 ft | 227 kts | 178° |
| 2026-04-28 21:57 | 11.05754 | -74.85990 | 2985 ft | 228 kts | 178° |
| 2026-04-28 21:58 | 11.04174 | -74.85992 | 2985 ft | 230 kts | 178° |
| 2026-04-28 21:58 | 11.02562 | -74.85996 | 2939 ft | 230 kts | 178° |
| 2026-04-28 21:58 | 11.00960 | -74.86001 | 2863 ft | 228 kts | 178° |
| 2026-04-28 21:58 | 10.99385 | -74.86003 | 2789 ft | 227 kts | 178° |
| 2026-04-28 21:59 | 10.97824 | -74.86005 | 2714 ft | 227 kts | 178° |
| 2026-04-28 21:59 | 10.96240 | -74.86006 | 2636 ft | 228 kts | 178° |
| 2026-04-28 21:59 | 10.94646 | -74.86007 | 2559 ft | 228 kts | 178° |
| 2026-04-28 22:00 | 10.91476 | -74.86009 | 2411 ft | 227 kts | 178° |
| 2026-04-28 22:00 | 10.89916 | -74.86008 | 2334 ft | 226 kts | 178° |
| 2026-04-28 22:00 | 10.88353 | -74.86008 | 2258 ft | 226 kts | 178° |
| 2026-04-28 22:00 | 10.86785 | -74.86008 | 2190 ft | 226 kts | 179° |
| 2026-04-28 22:01 | 10.85191 | -74.86007 | 2187 ft | 228 kts | 178° |
| 2026-04-28 22:01 | 10.83625 | -74.86008 | 2185 ft | 228 kts | 179° |
| 2026-04-28 22:01 | 10.82036 | -74.86011 | 2187 ft | 227 kts | 178° |
| 2026-04-28 22:01 | 10.80473 | -74.86011 | 2185 ft | 227 kts | 179° |
| 2026-04-28 22:02 | 10.78881 | -74.86031 | 2182 ft | 228 kts | 184° |
| 2026-04-28 22:02 | 10.77309 | -74.86251 | 2186 ft | 228 kts | 189° |
| 2026-04-28 22:02 | 10.75758 | -74.86550 | 2184 ft | 227 kts | 189° |
| 2026-04-28 22:02 | 10.74223 | -74.86843 | 2186 ft | 226 kts | 189° |
| 2026-04-28 22:03 | 10.72674 | -74.87120 | 2184 ft | 227 kts | 189° |
| 2026-04-28 22:03 | 10.71102 | -74.87392 | 2186 ft | 227 kts | 188° |
| 2026-04-28 22:03 | 10.69557 | -74.87693 | 2181 ft | 227 kts | 198° |
| 2026-04-28 22:03 | 10.68276 | -74.88575 | 2170 ft | 226 kts | 235° |
| 2026-04-28 22:04 | 10.67731 | -74.90048 | 2181 ft | 226 kts | 270° |
| 2026-04-28 22:04 | 10.68093 | -74.91583 | 2184 ft | 223 kts | 304° |
| 2026-04-28 22:04 | 10.69204 | -74.92638 | 2186 ft | 221 kts | 337° |
| 2026-04-28 22:04 | 10.70699 | -74.92905 | 2186 ft | 217 kts | 9° |
| 2026-04-28 22:05 | 10.72057 | -74.92338 | 2194 ft | 216 kts | 36° |
| 2026-04-28 22:05 | 10.73286 | -74.91428 | 2198 ft | 217 kts | 38° |
| 2026-04-28 22:05 | 10.74473 | -74.90489 | 2192 ft | 216 kts | 39° |
| 2026-04-28 22:05 | 10.75634 | -74.89523 | 2187 ft | 216 kts | 40° |
| 2026-04-28 22:06 | 10.76775 | -74.88551 | 2189 ft | 216 kts | 40° |
| 2026-04-28 22:06 | 10.77930 | -74.87556 | 2187 ft | 216 kts | 40° |
| 2026-04-28 22:06 | 10.79073 | -74.86574 | 2189 ft | 216 kts | 40° |
| 2026-04-28 22:06 | 10.80222 | -74.85588 | 2062 ft | 215 kts | 40° |
| 2026-04-28 22:07 | 10.81359 | -74.84614 | 1774 ft | 209 kts | 40° |
| 2026-04-28 22:07 | 10.82435 | -74.83688 | 1510 ft | 196 kts | 40° |
| 2026-04-28 22:07 | 10.83423 | -74.82840 | 1359 ft | 175 kts | 40° |
| 2026-04-28 22:07 | 10.84304 | -74.82082 | 1093 ft | 159 kts | 39° |
| 2026-04-28 22:08 | 10.85105 | -74.81395 | 846 ft | 145 kts | 39° |
| 2026-04-28 22:08 | 10.85846 | -74.80761 | 638 ft | 133 kts | 40° |
| 2026-04-28 22:08 | 10.86549 | -74.80157 | 493 ft | 132 kts | 38° |
| 2026-04-28 22:08 | 10.87256 | -74.79559 | 316 ft | 132 kts | 40° |
| 2026-04-28 22:09 | 10.87949 | -74.78954 | 133 ft | 131 kts | 38° |
| 2026-04-28 22:09 | 10.88562 | -74.78426 | 107 ft | 94 kts | 40° |
| 2026-04-28 22:09 | 10.88931 | -74.78108 | 107 ft | 44 kts | 42° |
| 2026-04-28 22:09 | 10.89068 | -74.77990 | 107 ft | 19 kts | 39° |
| 2026-04-28 22:10 | 10.89169 | -74.77904 | 107 ft | 18 kts | 40° |
| 2026-04-28 22:10 | 10.89266 | -74.77821 | 107 ft | 18 kts | 40° |
| 2026-04-28 22:10 | 10.89346 | -74.77752 | 107 ft | 11 kts | 44° |
| 2026-04-28 22:10 | 10.89374 | -74.77676 | 107 ft | 11 kts | 81° |
| 2026-04-28 22:11 | 10.89380 | -74.77593 | 107 ft | 11 kts | 103° |
| 2026-04-28 22:11 | 10.89362 | -74.77555 | 107 ft | 0 kts | 133° |
| 2026-04-28 22:11 | 10.89355 | -74.77549 | 107 ft | 1 kts | 141° |
| 2026-04-28 22:11 | 10.89335 | -74.77540 | 107 ft | 4 kts | 159° |
| 2026-04-28 22:12 | 10.89293 | -74.77525 | 107 ft | 7 kts | 160° |
| 2026-04-28 22:12 | 10.89232 | -74.77502 | 107 ft | 10 kts | 160° |
| 2026-04-28 22:12 | 10.89155 | -74.77486 | 107 ft | 11 kts | 186° |
| 2026-04-28 22:12 | 10.89080 | -74.77522 | 107 ft | 12 kts | 222° |
| 2026-04-28 22:13 | 10.89015 | -74.77583 | 107 ft | 13 kts | 220° |
| 2026-04-28 22:13 | 10.88946 | -74.77644 | 107 ft | 13 kts | 223° |
| 2026-04-28 22:13 | 10.88882 | -74.77700 | 107 ft | 9 kts | 218° |
| 2026-04-28 22:13 | 10.88845 | -74.77676 | 107 ft | 2 kts | 133° |
| 2026-04-28 22:14 | 10.88829 | -74.77657 | 107 ft | 4 kts | 131° |
| 2026-04-28 22:14 | 10.88825 | -74.77652 | 107 ft | 0 kts | 130° |